sensor_id;sensor_type;location;lat;lon;timestamp;temperature;humidity
360;DHT22;168;48.872;9.226;2023-07-13T00:01:55;21.10;77.00
360;DHT22;168;48.872;9.226;2023-07-13T00:04:24;21.00;77.00
360;DHT22;168;48.872;9.226;2023-07-13T00:06:52;20.90;77.40
360;DHT22;168;48.872;9.226;2023-07-13T00:09:20;20.90;77.50
360;DHT22;168;48.872;9.226;2023-07-13T00:11:51;20.80;77.60
360;DHT22;168;48.872;9.226;2023-07-13T00:14:18;20.80;78.20
360;DHT22;168;48.872;9.226;2023-07-13T00:16:46;20.70;78.40
360;DHT22;168;48.872;9.226;2023-07-13T00:19:14;20.70;78.20
360;DHT22;168;48.872;9.226;2023-07-13T00:21:43;20.60;78.60
360;DHT22;168;48.872;9.226;2023-07-13T00:24:12;20.60;78.40
360;DHT22;168;48.872;9.226;2023-07-13T00:26:40;20.60;78.30
360;DHT22;168;48.872;9.226;2023-07-13T00:29:10;20.60;77.70
360;DHT22;168;48.872;9.226;2023-07-13T00:31:38;20.60;77.80
360;DHT22;168;48.872;9.226;2023-07-13T00:34:05;20.50;78.00
360;DHT22;168;48.872;9.226;2023-07-13T00:36:32;20.60;78.00
360;DHT22;168;48.872;9.226;2023-07-13T00:39:02;20.60;77.60
360;DHT22;168;48.872;9.226;2023-07-13T00:41:30;20.60;77.80
360;DHT22;168;48.872;9.226;2023-07-13T00:43:58;20.50;77.80
360;DHT22;168;48.872;9.226;2023-07-13T00:46:27;20.40;78.30
360;DHT22;168;48.872;9.226;2023-07-13T00:48:57;20.50;78.30
360;DHT22;168;48.872;9.226;2023-07-13T00:51:30;20.50;78.00
360;DHT22;168;48.872;9.226;2023-07-13T00:54:03;20.50;78.30
360;DHT22;168;48.872;9.226;2023-07-13T00:56:32;20.50;77.80
360;DHT22;168;48.872;9.226;2023-07-13T00:59:00;20.50;77.50
360;DHT22;168;48.872;9.226;2023-07-13T01:01:29;20.40;77.60
360;DHT22;168;48.872;9.226;2023-07-13T01:03:56;20.40;77.90
360;DHT22;168;48.872;9.226;2023-07-13T01:06:24;20.40;77.50
360;DHT22;168;48.872;9.226;2023-07-13T01:08:51;20.40;77.50
360;DHT22;168;48.872;9.226;2023-07-13T01:11:21;20.40;77.20
360;DHT22;168;48.872;9.226;2023-07-13T01:13:49;20.30;77.50
360;DHT22;168;48.872;9.226;2023-07-13T01:16:23;20.20;77.90
360;DHT22;168;48.872;9.226;2023-07-13T01:18:51;20.20;77.80
360;DHT22;168;48.872;9.226;2023-07-13T01:21:20;20.20;77.70
360;DHT22;168;48.872;9.226;2023-07-13T01:23:48;20.20;77.60
360;DHT22;168;48.872;9.226;2023-07-13T01:26:15;20.20;77.60
360;DHT22;168;48.872;9.226;2023-07-13T01:28:43;20.10;77.50
360;DHT22;168;48.872;9.226;2023-07-13T01:31:10;20.10;77.60
360;DHT22;168;48.872;9.226;2023-07-13T01:33:40;20.00;78.00
360;DHT22;168;48.872;9.226;2023-07-13T01:36:08;20.00;78.80
360;DHT22;168;48.872;9.226;2023-07-13T01:38:37;19.90;78.70
360;DHT22;168;48.872;9.226;2023-07-13T01:41:04;20.10;77.80
360;DHT22;168;48.872;9.226;2023-07-13T01:43:33;20.00;77.80
360;DHT22;168;48.872;9.226;2023-07-13T01:46:00;20.00;78.70
360;DHT22;168;48.872;9.226;2023-07-13T01:48:27;20.00;79.80
360;DHT22;168;48.872;9.226;2023-07-13T01:50:55;20.00;81.10
360;DHT22;168;48.872;9.226;2023-07-13T01:53:22;20.00;81.10
360;DHT22;168;48.872;9.226;2023-07-13T01:55:51;20.10;80.70
360;DHT22;168;48.872;9.226;2023-07-13T01:58:18;20.10;79.50
360;DHT22;168;48.872;9.226;2023-07-13T02:00:48;20.20;79.00
360;DHT22;168;48.872;9.226;2023-07-13T02:03:15;20.20;80.30
360;DHT22;168;48.872;9.226;2023-07-13T02:05:44;20.30;78.10
360;DHT22;168;48.872;9.226;2023-07-13T02:08:11;20.40;77.90
360;DHT22;168;48.872;9.226;2023-07-13T02:10:39;20.40;77.10
360;DHT22;168;48.872;9.226;2023-07-13T02:13:07;20.30;77.40
360;DHT22;168;48.872;9.226;2023-07-13T02:15:38;20.10;78.90
360;DHT22;168;48.872;9.226;2023-07-13T02:18:06;19.90;80.00
360;DHT22;168;48.872;9.226;2023-07-13T02:20:33;19.90;80.20
360;DHT22;168;48.872;9.226;2023-07-13T02:23:01;19.80;80.80
360;DHT22;168;48.872;9.226;2023-07-13T02:25:28;19.80;80.30
360;DHT22;168;48.872;9.226;2023-07-13T02:27:56;19.70;80.70
360;DHT22;168;48.872;9.226;2023-07-13T02:30:24;19.70;81.20
360;DHT22;168;48.872;9.226;2023-07-13T02:32:52;19.70;81.20
360;DHT22;168;48.872;9.226;2023-07-13T02:35:19;19.60;81.60
360;DHT22;168;48.872;9.226;2023-07-13T02:37:46;19.50;82.00
360;DHT22;168;48.872;9.226;2023-07-13T02:40:14;19.40;82.70
360;DHT22;168;48.872;9.226;2023-07-13T02:42:42;19.20;83.30
360;DHT22;168;48.872;9.226;2023-07-13T02:45:10;19.10;84.00
360;DHT22;168;48.872;9.226;2023-07-13T02:47:40;19.00;84.40
360;DHT22;168;48.872;9.226;2023-07-13T02:50:09;18.90;84.40
360;DHT22;168;48.872;9.226;2023-07-13T02:52:36;19.00;84.80
360;DHT22;168;48.872;9.226;2023-07-13T02:55:04;18.90;84.90
360;DHT22;168;48.872;9.226;2023-07-13T02:57:31;18.90;84.90
360;DHT22;168;48.872;9.226;2023-07-13T03:00:00;18.90;85.40
360;DHT22;168;48.872;9.226;2023-07-13T03:02:31;18.80;85.20
360;DHT22;168;48.872;9.226;2023-07-13T03:05:00;18.70;85.60
360;DHT22;168;48.872;9.226;2023-07-13T03:07:27;18.60;86.20
360;DHT22;168;48.872;9.226;2023-07-13T03:09:55;18.50;86.30
360;DHT22;168;48.872;9.226;2023-07-13T03:12:23;18.50;86.90
360;DHT22;168;48.872;9.226;2023-07-13T03:14:50;18.40;87.60
360;DHT22;168;48.872;9.226;2023-07-13T03:17:18;18.40;87.70
360;DHT22;168;48.872;9.226;2023-07-13T03:19:45;18.40;87.80
360;DHT22;168;48.872;9.226;2023-07-13T03:22:17;18.30;87.90
360;DHT22;168;48.872;9.226;2023-07-13T03:24:44;18.30;88.10
360;DHT22;168;48.872;9.226;2023-07-13T03:27:12;18.40;88.40
360;DHT22;168;48.872;9.226;2023-07-13T03:29:40;18.50;88.00
360;DHT22;168;48.872;9.226;2023-07-13T03:32:08;18.50;87.50
360;DHT22;168;48.872;9.226;2023-07-13T03:34:35;18.60;87.40
360;DHT22;168;48.872;9.226;2023-07-13T03:37:03;18.60;87.50
360;DHT22;168;48.872;9.226;2023-07-13T03:39:32;18.60;87.50
360;DHT22;168;48.872;9.226;2023-07-13T03:41:59;18.60;87.60
360;DHT22;168;48.872;9.226;2023-07-13T03:44:27;18.70;87.60
360;DHT22;168;48.872;9.226;2023-07-13T03:46:54;18.70;87.40
360;DHT22;168;48.872;9.226;2023-07-13T03:49:21;18.80;87.00
360;DHT22;168;48.872;9.226;2023-07-13T03:51:49;19.00;86.30
360;DHT22;168;48.872;9.226;2023-07-13T03:54:16;19.00;86.20
360;DHT22;168;48.872;9.226;2023-07-13T03:56:45;19.00;86.20
360;DHT22;168;48.872;9.226;2023-07-13T03:59:12;19.10;85.40
360;DHT22;168;48.872;9.226;2023-07-13T04:01:39;19.20;85.70
360;DHT22;168;48.872;9.226;2023-07-13T04:04:07;19.30;84.30
360;DHT22;168;48.872;9.226;2023-07-13T04:06:35;19.30;83.80
360;DHT22;168;48.872;9.226;2023-07-13T04:09:03;19.40;83.30
360;DHT22;168;48.872;9.226;2023-07-13T04:11:32;19.40;83.60
360;DHT22;168;48.872;9.226;2023-07-13T04:14:04;19.40;83.00
360;DHT22;168;48.872;9.226;2023-07-13T04:16:31;19.40;83.10
360;DHT22;168;48.872;9.226;2023-07-13T04:18:59;19.30;83.30
360;DHT22;168;48.872;9.226;2023-07-13T04:21:27;19.30;83.40
360;DHT22;168;48.872;9.226;2023-07-13T04:23:54;19.30;83.30
360;DHT22;168;48.872;9.226;2023-07-13T04:26:22;19.20;83.40
360;DHT22;168;48.872;9.226;2023-07-13T04:28:50;19.20;83.50
360;DHT22;168;48.872;9.226;2023-07-13T04:31:20;19.10;84.00
360;DHT22;168;48.872;9.226;2023-07-13T04:33:51;19.10;83.80
360;DHT22;168;48.872;9.226;2023-07-13T04:36:19;19.20;83.20
360;DHT22;168;48.872;9.226;2023-07-13T04:38:46;19.10;83.40
360;DHT22;168;48.872;9.226;2023-07-13T04:41:15;19.10;83.00
360;DHT22;168;48.872;9.226;2023-07-13T04:43:42;19.00;83.60
360;DHT22;168;48.872;9.226;2023-07-13T04:46:12;19.00;83.90
360;DHT22;168;48.872;9.226;2023-07-13T04:48:41;19.00;83.60
360;DHT22;168;48.872;9.226;2023-07-13T04:51:09;19.00;83.60
360;DHT22;168;48.872;9.226;2023-07-13T04:53:37;19.00;83.50
360;DHT22;168;48.872;9.226;2023-07-13T04:56:04;19.00;83.70
360;DHT22;168;48.872;9.226;2023-07-13T04:58:33;19.00;83.30
360;DHT22;168;48.872;9.226;2023-07-13T05:01:01;19.10;83.20
360;DHT22;168;48.872;9.226;2023-07-13T05:03:28;19.00;83.90
360;DHT22;168;48.872;9.226;2023-07-13T05:05:59;18.90;84.60
360;DHT22;168;48.872;9.226;2023-07-13T05:08:27;19.00;84.80
360;DHT22;168;48.872;9.226;2023-07-13T05:10:55;19.00;84.80
360;DHT22;168;48.872;9.226;2023-07-13T05:13:22;19.00;84.00
360;DHT22;168;48.872;9.226;2023-07-13T05:15:56;19.10;83.80
360;DHT22;168;48.872;9.226;2023-07-13T05:18:24;19.40;81.60
360;DHT22;168;48.872;9.226;2023-07-13T05:21:00;19.50;81.40
360;DHT22;168;48.872;9.226;2023-07-13T05:23:28;19.50;81.50
360;DHT22;168;48.872;9.226;2023-07-13T05:25:56;19.70;80.80
360;DHT22;168;48.872;9.226;2023-07-13T05:28:24;19.70;80.50
360;DHT22;168;48.872;9.226;2023-07-13T05:30:52;19.80;80.10
360;DHT22;168;48.872;9.226;2023-07-13T05:33:20;19.80;81.30
360;DHT22;168;48.872;9.226;2023-07-13T05:35:48;19.80;80.60
360;DHT22;168;48.872;9.226;2023-07-13T05:38:16;19.90;80.80
360;DHT22;168;48.872;9.226;2023-07-13T05:40:44;20.00;80.50
360;DHT22;168;48.872;9.226;2023-07-13T05:43:12;20.10;79.70
360;DHT22;168;48.872;9.226;2023-07-13T05:45:40;20.20;79.30
360;DHT22;168;48.872;9.226;2023-07-13T05:48:07;20.30;78.30
360;DHT22;168;48.872;9.226;2023-07-13T05:50:35;20.30;78.30
360;DHT22;168;48.872;9.226;2023-07-13T05:53:44;20.30;78.20
360;DHT22;168;48.872;9.226;2023-07-13T05:56:16;20.30;77.40
360;DHT22;168;48.872;9.226;2023-07-13T05:58:57;20.30;77.90
360;DHT22;168;48.872;9.226;2023-07-13T06:01:25;20.30;78.00
360;DHT22;168;48.872;9.226;2023-07-13T06:03:52;20.30;78.40
360;DHT22;168;48.872;9.226;2023-07-13T06:06:21;20.20;79.40
360;DHT22;168;48.872;9.226;2023-07-13T06:08:53;20.20;79.10
360;DHT22;168;48.872;9.226;2023-07-13T06:11:23;20.30;79.00
360;DHT22;168;48.872;9.226;2023-07-13T06:13:50;20.40;78.40
360;DHT22;168;48.872;9.226;2023-07-13T06:16:19;20.60;78.00
360;DHT22;168;48.872;9.226;2023-07-13T06:19:02;20.70;77.10
360;DHT22;168;48.872;9.226;2023-07-13T06:21:29;20.80;75.10
360;DHT22;168;48.872;9.226;2023-07-13T06:23:58;20.90;74.40
360;DHT22;168;48.872;9.226;2023-07-13T06:26:25;20.90;73.70
360;DHT22;168;48.872;9.226;2023-07-13T06:28:53;20.80;74.70
360;DHT22;168;48.872;9.226;2023-07-13T06:31:20;20.80;74.10
360;DHT22;168;48.872;9.226;2023-07-13T06:33:47;20.70;74.10
360;DHT22;168;48.872;9.226;2023-07-13T06:36:15;20.50;74.80
360;DHT22;168;48.872;9.226;2023-07-13T06:38:42;20.50;75.00
360;DHT22;168;48.872;9.226;2023-07-13T06:41:11;20.40;75.20
360;DHT22;168;48.872;9.226;2023-07-13T06:43:38;20.20;76.20
360;DHT22;168;48.872;9.226;2023-07-13T06:46:06;20.20;77.20
360;DHT22;168;48.872;9.226;2023-07-13T06:48:34;20.40;75.80
360;DHT22;168;48.872;9.226;2023-07-13T06:51:03;20.60;75.50
360;DHT22;168;48.872;9.226;2023-07-13T06:53:37;20.70;74.40
360;DHT22;168;48.872;9.226;2023-07-13T06:56:05;20.90;72.90
360;DHT22;168;48.872;9.226;2023-07-13T06:58:34;21.10;71.80
360;DHT22;168;48.872;9.226;2023-07-13T07:01:02;21.20;70.10
360;DHT22;168;48.872;9.226;2023-07-13T07:03:30;21.30;69.70
360;DHT22;168;48.872;9.226;2023-07-13T07:06:00;21.30;69.30
360;DHT22;168;48.872;9.226;2023-07-13T07:08:28;21.30;69.60
360;DHT22;168;48.872;9.226;2023-07-13T07:11:01;21.50;69.60
360;DHT22;168;48.872;9.226;2023-07-13T07:13:29;21.70;67.80
360;DHT22;168;48.872;9.226;2023-07-13T07:15:58;21.60;68.40
360;DHT22;168;48.872;9.226;2023-07-13T07:18:26;21.40;68.50
360;DHT22;168;48.872;9.226;2023-07-13T07:20:54;21.50;67.70
360;DHT22;168;48.872;9.226;2023-07-13T07:23:21;21.70;66.00
360;DHT22;168;48.872;9.226;2023-07-13T07:25:48;21.70;66.90
360;DHT22;168;48.872;9.226;2023-07-13T07:28:18;21.60;68.10
360;DHT22;168;48.872;9.226;2023-07-13T07:30:45;21.70;67.60
360;DHT22;168;48.872;9.226;2023-07-13T07:33:14;21.70;66.80
360;DHT22;168;48.872;9.226;2023-07-13T07:35:42;21.70;67.30
360;DHT22;168;48.872;9.226;2023-07-13T07:38:10;21.70;66.60
360;DHT22;168;48.872;9.226;2023-07-13T07:40:38;21.80;66.90
360;DHT22;168;48.872;9.226;2023-07-13T07:43:06;21.90;65.80
360;DHT22;168;48.872;9.226;2023-07-13T07:45:34;22.00;65.40
360;DHT22;168;48.872;9.226;2023-07-13T07:48:03;22.00;65.70
360;DHT22;168;48.872;9.226;2023-07-13T07:50:33;22.10;65.70
360;DHT22;168;48.872;9.226;2023-07-13T07:53:01;22.10;64.90
360;DHT22;168;48.872;9.226;2023-07-13T07:55:28;22.30;64.30
360;DHT22;168;48.872;9.226;2023-07-13T07:57:56;22.20;63.10
360;DHT22;168;48.872;9.226;2023-07-13T08:00:24;22.10;63.90
360;DHT22;168;48.872;9.226;2023-07-13T08:02:52;22.10;64.20
360;DHT22;168;48.872;9.226;2023-07-13T08:05:20;22.20;64.80
360;DHT22;168;48.872;9.226;2023-07-13T08:07:48;22.30;64.40
360;DHT22;168;48.872;9.226;2023-07-13T08:10:16;22.40;63.10
360;DHT22;168;48.872;9.226;2023-07-13T08:12:43;22.30;62.70
360;DHT22;168;48.872;9.226;2023-07-13T08:15:12;22.50;61.30
360;DHT22;168;48.872;9.226;2023-07-13T08:17:41;22.60;61.00
360;DHT22;168;48.872;9.226;2023-07-13T08:20:09;22.60;61.30
360;DHT22;168;48.872;9.226;2023-07-13T08:22:37;22.60;61.10
360;DHT22;168;48.872;9.226;2023-07-13T08:25:07;22.60;60.40
360;DHT22;168;48.872;9.226;2023-07-13T08:27:34;22.80;60.00
360;DHT22;168;48.872;9.226;2023-07-13T08:30:02;22.80;60.10
360;DHT22;168;48.872;9.226;2023-07-13T08:32:31;22.90;59.40
360;DHT22;168;48.872;9.226;2023-07-13T08:34:59;22.90;58.70
360;DHT22;168;48.872;9.226;2023-07-13T08:37:26;22.90;59.30
360;DHT22;168;48.872;9.226;2023-07-13T08:39:53;22.90;59.00
360;DHT22;168;48.872;9.226;2023-07-13T08:42:35;22.90;59.70
360;DHT22;168;48.872;9.226;2023-07-13T08:45:08;23.00;59.40
360;DHT22;168;48.872;9.226;2023-07-13T08:47:44;22.90;58.60
360;DHT22;168;48.872;9.226;2023-07-13T08:50:17;22.90;58.80
360;DHT22;168;48.872;9.226;2023-07-13T08:52:45;22.90;58.80
360;DHT22;168;48.872;9.226;2023-07-13T08:55:15;23.10;59.00
360;DHT22;168;48.872;9.226;2023-07-13T08:57:48;23.30;58.80
360;DHT22;168;48.872;9.226;2023-07-13T09:00:19;23.10;59.40
360;DHT22;168;48.872;9.226;2023-07-13T09:02:51;23.30;58.50
360;DHT22;168;48.872;9.226;2023-07-13T09:05:26;23.40;58.10
360;DHT22;168;48.872;9.226;2023-07-13T09:08:04;23.50;58.90
360;DHT22;168;48.872;9.226;2023-07-13T09:10:37;23.70;58.30
360;DHT22;168;48.872;9.226;2023-07-13T09:13:20;23.70;58.40
360;DHT22;168;48.872;9.226;2023-07-13T09:15:49;23.70;57.90
360;DHT22;168;48.872;9.226;2023-07-13T09:18:23;23.80;58.90
360;DHT22;168;48.872;9.226;2023-07-13T09:20:55;24.00;57.80
360;DHT22;168;48.872;9.226;2023-07-13T09:23:27;23.90;58.80
360;DHT22;168;48.872;9.226;2023-07-13T09:26:00;24.10;58.90
360;DHT22;168;48.872;9.226;2023-07-13T09:28:35;24.20;58.10
360;DHT22;168;48.872;9.226;2023-07-13T09:31:06;24.20;58.40
360;DHT22;168;48.872;9.226;2023-07-13T09:33:34;24.30;58.70
360;DHT22;168;48.872;9.226;2023-07-13T09:36:16;24.20;57.70
360;DHT22;168;48.872;9.226;2023-07-13T09:38:44;24.10;57.40
360;DHT22;168;48.872;9.226;2023-07-13T09:41:19;24.10;57.00
360;DHT22;168;48.872;9.226;2023-07-13T09:44:07;24.10;56.30
360;DHT22;168;48.872;9.226;2023-07-13T09:46:38;24.30;56.90
360;DHT22;168;48.872;9.226;2023-07-13T09:49:09;24.30;56.10
360;DHT22;168;48.872;9.226;2023-07-13T09:51:37;24.20;55.10
360;DHT22;168;48.872;9.226;2023-07-13T09:54:04;24.40;55.80
360;DHT22;168;48.872;9.226;2023-07-13T09:56:32;24.40;56.30
360;DHT22;168;48.872;9.226;2023-07-13T09:58:59;24.50;56.60
360;DHT22;168;48.872;9.226;2023-07-13T10:01:36;24.50;55.30
360;DHT22;168;48.872;9.226;2023-07-13T10:04:11;24.50;56.00
360;DHT22;168;48.872;9.226;2023-07-13T10:06:40;24.60;55.50
360;DHT22;168;48.872;9.226;2023-07-13T10:09:09;24.80;56.10
360;DHT22;168;48.872;9.226;2023-07-13T10:11:39;24.80;55.80
360;DHT22;168;48.872;9.226;2023-07-13T10:14:13;24.80;56.30
360;DHT22;168;48.872;9.226;2023-07-13T10:16:44;25.00;56.20
360;DHT22;168;48.872;9.226;2023-07-13T10:19:14;25.30;56.00
360;DHT22;168;48.872;9.226;2023-07-13T10:21:50;25.40;54.30
360;DHT22;168;48.872;9.226;2023-07-13T10:24:22;25.20;54.30
360;DHT22;168;48.872;9.226;2023-07-13T10:26:55;25.10;54.80
360;DHT22;168;48.872;9.226;2023-07-13T10:29:27;25.10;55.10
360;DHT22;168;48.872;9.226;2023-07-13T10:31:57;25.00;55.40
360;DHT22;168;48.872;9.226;2023-07-13T10:34:25;24.90;56.00
360;DHT22;168;48.872;9.226;2023-07-13T10:36:52;24.90;55.40
360;DHT22;168;48.872;9.226;2023-07-13T10:39:22;24.80;55.10
360;DHT22;168;48.872;9.226;2023-07-13T10:41:57;24.90;56.20
360;DHT22;168;48.872;9.226;2023-07-13T10:44:28;25.10;55.60
360;DHT22;168;48.872;9.226;2023-07-13T10:47:01;25.50;54.20
360;DHT22;168;48.872;9.226;2023-07-13T10:49:31;25.60;53.80
360;DHT22;168;48.872;9.226;2023-07-13T10:51:58;25.70;54.10
360;DHT22;168;48.872;9.226;2023-07-13T10:54:31;25.70;53.90
360;DHT22;168;48.872;9.226;2023-07-13T10:57:17;25.90;54.20
360;DHT22;168;48.872;9.226;2023-07-13T10:59:49;26.00;53.60
360;DHT22;168;48.872;9.226;2023-07-13T11:02:38;25.90;54.30
360;DHT22;168;48.872;9.226;2023-07-13T11:05:25;26.00;53.60
360;DHT22;168;48.872;9.226;2023-07-13T11:08:02;26.20;52.90
360;DHT22;168;48.872;9.226;2023-07-13T11:10:50;26.40;53.20
360;DHT22;168;48.872;9.226;2023-07-13T11:13:38;26.50;52.70
360;DHT22;168;48.872;9.226;2023-07-13T11:16:42;26.20;53.50
360;DHT22;168;48.872;9.226;2023-07-13T11:22:23;26.20;52.80
360;DHT22;168;48.872;9.226;2023-07-13T11:25:00;26.10;53.20
360;DHT22;168;48.872;9.226;2023-07-13T11:27:36;26.20;53.20
360;DHT22;168;48.872;9.226;2023-07-13T11:33:02;26.10;53.10
360;DHT22;168;48.872;9.226;2023-07-13T11:35:36;26.00;52.90
360;DHT22;168;48.872;9.226;2023-07-13T11:38:14;25.90;53.90
360;DHT22;168;48.872;9.226;2023-07-13T11:40:44;26.00;53.10
360;DHT22;168;48.872;9.226;2023-07-13T11:43:14;26.00;52.90
360;DHT22;168;48.872;9.226;2023-07-13T11:45:42;26.10;52.90
360;DHT22;168;48.872;9.226;2023-07-13T11:48:25;26.20;52.50
360;DHT22;168;48.872;9.226;2023-07-13T11:50:55;26.20;52.50
360;DHT22;168;48.872;9.226;2023-07-13T11:53:28;26.30;51.90
360;DHT22;168;48.872;9.226;2023-07-13T11:55:57;26.50;51.50
360;DHT22;168;48.872;9.226;2023-07-13T11:58:26;26.40;51.80
360;DHT22;168;48.872;9.226;2023-07-13T12:00:58;26.40;51.90
360;DHT22;168;48.872;9.226;2023-07-13T12:03:27;26.50;51.20
360;DHT22;168;48.872;9.226;2023-07-13T12:05:56;26.50;51.90
360;DHT22;168;48.872;9.226;2023-07-13T12:08:26;26.80;51.10
360;DHT22;168;48.872;9.226;2023-07-13T12:10:58;26.90;51.00
360;DHT22;168;48.872;9.226;2023-07-13T12:13:27;27.10;51.20
360;DHT22;168;48.872;9.226;2023-07-13T12:15:56;27.30;49.80
360;DHT22;168;48.872;9.226;2023-07-13T12:18:30;27.10;50.30
360;DHT22;168;48.872;9.226;2023-07-13T12:21:00;26.80;50.80
360;DHT22;168;48.872;9.226;2023-07-13T12:23:32;26.60;51.30
360;DHT22;168;48.872;9.226;2023-07-13T12:26:02;26.50;50.80
360;DHT22;168;48.872;9.226;2023-07-13T12:28:32;26.40;50.60
360;DHT22;168;48.872;9.226;2023-07-13T12:31:01;26.40;51.20
360;DHT22;168;48.872;9.226;2023-07-13T12:33:31;26.50;51.60
360;DHT22;168;48.872;9.226;2023-07-13T12:36:01;26.70;50.50
360;DHT22;168;48.872;9.226;2023-07-13T12:38:31;26.80;49.50
360;DHT22;168;48.872;9.226;2023-07-13T12:41:01;26.80;50.20
360;DHT22;168;48.872;9.226;2023-07-13T12:43:34;26.90;50.60
360;DHT22;168;48.872;9.226;2023-07-13T12:46:14;26.90;49.80
360;DHT22;168;48.872;9.226;2023-07-13T12:48:43;27.10;49.70
360;DHT22;168;48.872;9.226;2023-07-13T12:51:13;27.20;49.40
360;DHT22;168;48.872;9.226;2023-07-13T12:53:43;27.10;49.40
360;DHT22;168;48.872;9.226;2023-07-13T12:56:18;27.00;48.50
360;DHT22;168;48.872;9.226;2023-07-13T12:58:47;26.80;48.80
360;DHT22;168;48.872;9.226;2023-07-13T13:01:21;26.70;49.60
360;DHT22;168;48.872;9.226;2023-07-13T13:03:51;26.60;48.90
360;DHT22;168;48.872;9.226;2023-07-13T13:06:25;26.40;48.90
360;DHT22;168;48.872;9.226;2023-07-13T13:08:55;26.50;49.10
360;DHT22;168;48.872;9.226;2023-07-13T13:11:26;26.60;49.10
360;DHT22;168;48.872;9.226;2023-07-13T13:13:54;26.50;49.40
360;DHT22;168;48.872;9.226;2023-07-13T13:16:23;26.70;48.70
360;DHT22;168;48.872;9.226;2023-07-13T13:18:52;26.80;49.70
360;DHT22;168;48.872;9.226;2023-07-13T13:21:20;26.80;49.30
360;DHT22;168;48.872;9.226;2023-07-13T13:23:47;26.90;49.70
360;DHT22;168;48.872;9.226;2023-07-13T13:26:19;27.00;49.40
360;DHT22;168;48.872;9.226;2023-07-13T13:28:46;27.10;49.40
360;DHT22;168;48.872;9.226;2023-07-13T13:31:15;27.20;49.00
360;DHT22;168;48.872;9.226;2023-07-13T13:33:44;27.10;49.10
360;DHT22;168;48.872;9.226;2023-07-13T13:36:15;27.10;49.00
360;DHT22;168;48.872;9.226;2023-07-13T13:38:43;27.10;50.10
360;DHT22;168;48.872;9.226;2023-07-13T13:41:12;27.20;49.80
360;DHT22;168;48.872;9.226;2023-07-13T13:43:42;27.20;48.20
360;DHT22;168;48.872;9.226;2023-07-13T13:46:16;27.20;47.90
360;DHT22;168;48.872;9.226;2023-07-13T13:48:45;27.20;48.20
360;DHT22;168;48.872;9.226;2023-07-13T13:51:16;27.20;48.70
360;DHT22;168;48.872;9.226;2023-07-13T13:53:43;27.30;47.40
360;DHT22;168;48.872;9.226;2023-07-13T13:56:11;27.10;47.60
360;DHT22;168;48.872;9.226;2023-07-13T13:58:41;27.20;48.50
360;DHT22;168;48.872;9.226;2023-07-13T14:01:13;27.30;47.80
360;DHT22;168;48.872;9.226;2023-07-13T14:03:40;27.40;47.40
360;DHT22;168;48.872;9.226;2023-07-13T14:06:10;27.50;47.70
360;DHT22;168;48.872;9.226;2023-07-13T14:08:38;27.60;48.00
360;DHT22;168;48.872;9.226;2023-07-13T14:11:08;27.70;47.60
360;DHT22;168;48.872;9.226;2023-07-13T14:13:42;27.60;47.50
360;DHT22;168;48.872;9.226;2023-07-13T14:16:11;27.60;48.00
360;DHT22;168;48.872;9.226;2023-07-13T14:18:39;27.70;48.30
360;DHT22;168;48.872;9.226;2023-07-13T14:21:11;27.60;48.10
360;DHT22;168;48.872;9.226;2023-07-13T14:23:39;27.60;48.20
360;DHT22;168;48.872;9.226;2023-07-13T14:26:11;27.80;48.20
360;DHT22;168;48.872;9.226;2023-07-13T14:28:44;27.90;47.50
360;DHT22;168;48.872;9.226;2023-07-13T14:31:13;27.90;47.10
360;DHT22;168;48.872;9.226;2023-07-13T14:33:41;27.90;47.20
360;DHT22;168;48.872;9.226;2023-07-13T14:36:21;27.80;46.70
360;DHT22;168;48.872;9.226;2023-07-13T14:38:50;27.90;46.80
360;DHT22;168;48.872;9.226;2023-07-13T14:41:17;27.90;46.00
360;DHT22;168;48.872;9.226;2023-07-13T14:43:46;28.00;46.40
360;DHT22;168;48.872;9.226;2023-07-13T14:46:22;28.20;46.70
360;DHT22;168;48.872;9.226;2023-07-13T14:48:52;28.10;47.60
360;DHT22;168;48.872;9.226;2023-07-13T14:51:20;28.30;47.30
360;DHT22;168;48.872;9.226;2023-07-13T14:53:48;28.50;46.90
360;DHT22;168;48.872;9.226;2023-07-13T14:56:15;28.80;46.70
360;DHT22;168;48.872;9.226;2023-07-13T14:58:43;28.80;47.00
360;DHT22;168;48.872;9.226;2023-07-13T15:01:14;28.80;46.70
360;DHT22;168;48.872;9.226;2023-07-13T15:03:47;28.90;46.50
360;DHT22;168;48.872;9.226;2023-07-13T15:06:15;28.80;46.70
360;DHT22;168;48.872;9.226;2023-07-13T15:08:43;28.70;46.80
360;DHT22;168;48.872;9.226;2023-07-13T15:11:10;28.80;46.40
360;DHT22;168;48.872;9.226;2023-07-13T15:13:39;28.50;46.30
360;DHT22;168;48.872;9.226;2023-07-13T15:16:15;28.60;47.00
360;DHT22;168;48.872;9.226;2023-07-13T15:18:45;28.50;46.60
360;DHT22;168;48.872;9.226;2023-07-13T15:21:16;28.30;47.00
360;DHT22;168;48.872;9.226;2023-07-13T15:23:45;28.30;47.20
360;DHT22;168;48.872;9.226;2023-07-13T15:26:14;28.60;46.70
360;DHT22;168;48.872;9.226;2023-07-13T15:28:42;28.70;46.50
360;DHT22;168;48.872;9.226;2023-07-13T15:31:19;28.80;46.70
360;DHT22;168;48.872;9.226;2023-07-13T15:33:48;28.90;46.40
360;DHT22;168;48.872;9.226;2023-07-13T15:36:17;29.00;46.10
360;DHT22;168;48.872;9.226;2023-07-13T15:38:45;28.80;46.40
360;DHT22;168;48.872;9.226;2023-07-13T15:41:17;28.60;46.80
360;DHT22;168;48.872;9.226;2023-07-13T15:43:46;28.50;47.00
360;DHT22;168;48.872;9.226;2023-07-13T15:46:14;28.70;46.70
360;DHT22;168;48.872;9.226;2023-07-13T15:48:42;28.70;46.70
360;DHT22;168;48.872;9.226;2023-07-13T15:51:14;28.70;46.70
360;DHT22;168;48.872;9.226;2023-07-13T15:53:44;28.60;46.70
360;DHT22;168;48.872;9.226;2023-07-13T15:56:19;28.70;47.10
360;DHT22;168;48.872;9.226;2023-07-13T15:58:48;29.00;46.60
360;DHT22;168;48.872;9.226;2023-07-13T16:01:15;29.20;46.50
360;DHT22;168;48.872;9.226;2023-07-13T16:03:45;29.40;45.80
360;DHT22;168;48.872;9.226;2023-07-13T16:06:15;29.40;45.80
360;DHT22;168;48.872;9.226;2023-07-13T16:08:43;29.00;46.20
360;DHT22;168;48.872;9.226;2023-07-13T16:11:20;28.90;46.80
360;DHT22;168;48.872;9.226;2023-07-13T16:13:48;29.00;46.50
360;DHT22;168;48.872;9.226;2023-07-13T16:16:22;29.10;46.30
360;DHT22;168;48.872;9.226;2023-07-13T16:18:54;29.10;46.20
360;DHT22;168;48.872;9.226;2023-07-13T16:21:23;29.00;46.40
360;DHT22;168;48.872;9.226;2023-07-13T16:23:52;29.20;46.20
360;DHT22;168;48.872;9.226;2023-07-13T16:26:26;29.20;45.90
360;DHT22;168;48.872;9.226;2023-07-13T16:28:53;29.40;45.80
360;DHT22;168;48.872;9.226;2023-07-13T16:31:30;29.80;45.70
360;DHT22;168;48.872;9.226;2023-07-13T16:34:00;30.10;44.70
360;DHT22;168;48.872;9.226;2023-07-13T16:36:28;30.00;44.70
360;DHT22;168;48.872;9.226;2023-07-13T16:38:57;29.90;45.10
360;DHT22;168;48.872;9.226;2023-07-13T16:41:24;29.90;44.90
360;DHT22;168;48.872;9.226;2023-07-13T16:43:52;30.10;45.30
360;DHT22;168;48.872;9.226;2023-07-13T16:46:22;30.40;44.10
360;DHT22;168;48.872;9.226;2023-07-13T16:48:51;30.30;44.50
360;DHT22;168;48.872;9.226;2023-07-13T16:51:20;30.40;44.80
360;DHT22;168;48.872;9.226;2023-07-13T16:53:48;30.20;45.00
360;DHT22;168;48.872;9.226;2023-07-13T16:56:17;30.10;45.40
360;DHT22;168;48.872;9.226;2023-07-13T16:58:46;30.20;45.30